Time;durP1;ratioP1;P1;durP2;ratioP2;P2;SDS_P1;SDS_P2;PMS_P1;PMS_P2;Temp;Humidity;BMP_temperature;BMP_pressure;BME280_temperature;BME280_humidity;BME280_pressure;Samples;Min_cycle;Max_cycle;Signal;HPM_P1;HPM_P2
2023/11/03 00:00:56;;;;;;;41.45;27.63;;;;;;;11.45;77.44;93754.91;4205435;28;20048;-70
2023/11/03 00:02:59;;;;;;;39.20;27.85;;;;;;;11.54;77.01;93729.34;4209739;28;20052;-70
2023/11/03 00:05:04;;;;;;;43.53;27.65;;;;;;;11.47;77.21;93719.59;4211757;28;20135;-69
2023/11/03 00:07:08;;;;;;;39.92;27.95;;;;;;;11.56;77.27;93725.53;4206796;28;20058;-70
2023/11/03 00:09:14;;;;;;;38.35;28.00;;;;;;;11.67;76.73;93726.84;4193931;28;20059;-69
2023/11/03 00:11:16;;;;;;;36.00;26.58;;;;;;;11.71;76.33;93722.84;4202842;28;20128;-70
2023/11/03 00:13:18;;;;;;;39.15;27.42;;;;;;;11.80;76.45;93705.94;4211360;28;20055;-68
2023/11/03 00:15:22;;;;;;;42.45;28.85;;;;;;;11.69;75.78;93695.97;4210801;28;20126;-70
2023/11/03 00:17:24;;;;;;;38.60;27.85;;;;;;;11.57;76.58;93707.97;4191053;28;20409;-68
2023/11/03 00:19:26;;;;;;;41.60;28.25;;;;;;;11.60;76.62;93712.84;4191539;28;20068;-68
2023/11/03 00:21:28;;;;;;;43.75;28.13;;;;;;;11.69;76.48;93719.59;4208565;28;20052;-69
2023/11/03 00:23:30;;;;;;;43.03;26.70;;;;;;;11.75;75.74;93723.28;4191006;28;20051;-69
2023/11/03 00:25:33;;;;;;;41.97;28.05;;;;;;;11.72;75.71;93715.75;4203372;28;20052;-70
2023/11/03 00:27:35;;;;;;;35.40;27.48;;;;;;;11.70;76.13;93715.94;4210342;28;20173;-67
2023/11/03 00:29:37;;;;;;;40.05;27.70;;;;;;;11.75;76.11;93729.31;4185930;28;20048;-70
2023/11/03 00:31:45;;;;;;;40.00;28.60;;;;;;;11.44;76.47;93720.00;4208674;28;20536;-66
2023/11/03 00:33:48;;;;;;;41.28;27.98;;;;;;;11.20;77.83;93734.25;4210337;28;20186;-70
2023/11/03 00:35:50;;;;;;;42.88;29.05;;;;;;;11.12;78.34;93738.81;4205655;28;20086;-70
2023/11/03 00:37:53;;;;;;;42.25;30.40;;;;;;;11.22;78.59;93744.56;4190075;28;20052;-68
2023/11/03 00:39:55;;;;;;;45.22;29.45;;;;;;;11.27;78.00;93737.78;4213328;28;20403;-68
2023/11/03 00:41:57;;;;;;;46.33;30.25;;;;;;;11.04;78.60;93727.47;4196882;28;20101;-69
2023/11/03 00:43:58;;;;;;;43.58;30.83;;;;;;;11.17;78.85;93739.09;4212321;28;20071;-69
2023/11/03 00:46:02;;;;;;;48.53;32.03;;;;;;;11.29;78.30;93734.97;4196366;28;20054;-68
2023/11/03 00:48:05;;;;;;;40.95;29.33;;;;;;;11.43;77.73;93741.97;4211925;28;20560;-71
2023/11/03 00:50:09;;;;;;;40.33;28.27;;;;;;;11.54;76.81;93752.94;4188903;28;20053;-69
2023/11/03 00:52:11;;;;;;;;;;;;;;;11.58;76.12;93735.84;4208970;28;20059;-71
2023/11/03 00:54:14;;;;;;;43.13;28.67;;;;;;;11.50;76.41;93735.97;4196474;28;20324;-71
2023/11/03 00:56:16;;;;;;;37.60;25.98;;;;;;;11.51;76.65;93733.16;4214089;28;20044;-69
2023/11/03 00:58:19;;;;;;;39.83;26.88;;;;;;;11.44;76.13;93742.75;4214925;28;20044;-70
2023/11/03 01:00:23;;;;;;;36.67;26.35;;;;;;;11.48;76.13;93763.19;4205683;28;20560;-68
2023/11/03 01:02:26;;;;;;;39.38;25.25;;;;;;;11.53;76.05;93759.19;4213983;28;20442;-67
2023/11/03 01:04:28;;;;;;;37.30;25.38;;;;;;;11.60;75.84;93741.72;4214194;28;20070;-71
2023/11/03 01:06:30;;;;;;;44.65;26.13;;;;;;;11.67;75.48;93732.06;4212759;28;20052;-70
2023/11/03 01:08:32;;;;;;;35.13;25.13;;;;;;;11.72;75.11;93742.00;4213523;28;20087;-70
2023/11/03 01:10:34;;;;;;;36.83;26.27;;;;;;;11.75;74.91;93729.31;4214975;28;20044;-70
2023/11/03 01:12:36;;;;;;;39.03;27.77;;;;;;;11.45;75.33;93739.97;4206753;28;20094;-71
2023/11/03 01:14:39;;;;;;;44.00;28.70;;;;;;;11.32;76.21;93737.22;4209728;28;20610;-69
2023/11/03 01:16:42;;;;;;;41.35;29.25;;;;;;;11.24;76.84;93742.56;4188998;28;20063;-67
2023/11/03 01:18:45;;;;;;;46.22;30.48;;;;;;;11.24;77.22;93743.38;4213358;28;20071;-69
2023/11/03 01:20:52;;;;;;;38.92;26.98;;;;;;;11.31;76.85;93759.19;4200336;28;20048;-68
2023/11/03 01:22:58;;;;;;;39.75;28.52;;;;;;;11.38;76.62;93773.19;4202653;28;20059;-71
2023/11/03 01:25:00;;;;;;;45.75;30.00;;;;;;;11.46;76.28;93778.31;4214006;28;20132;-69
2023/11/03 01:27:04;;;;;;;45.90;29.08;;;;;;;11.51;75.79;93774.28;4193934;28;20398;-71
2023/11/03 01:29:05;;;;;;;39.22;29.50;;;;;;;11.59;75.65;93761.06;4213293;28;20086;-69
2023/11/03 01:31:09;;;;;;;50.42;31.33;;;;;;;11.60;75.34;93765.31;4213536;28;20095;-69
2023/11/03 01:33:11;;;;;;;43.15;30.98;;;;;;;11.63;75.42;93770.97;4206112;28;20465;-70
2023/11/03 01:35:13;;;;;;;45.55;32.30;;;;;;;11.61;75.52;93756.44;4202421;28;20048;-67
2023/11/03 01:37:15;;;;;;;46.45;30.05;;;;;;;11.62;75.69;93779.06;4200446;28;20748;-70
2023/11/03 01:39:17;;;;;;;45.92;29.15;;;;;;;11.64;75.41;93771.81;4203427;28;20526;-71
2023/11/03 01:41:19;;;;;;;45.33;31.20;;;;;;;11.65;75.26;93766.38;4211531;28;20071;-70
2023/11/03 01:43:20;;;;;;;40.25;30.13;;;;;;;11.71;74.95;93769.25;4212978;28;20098;-69
2023/11/03 01:45:22;;;;;;;45.28;31.30;;;;;;;11.75;75.02;93754.75;4212745;28;20052;-69
